createdAt,value
2019-01-24T00:00:54.691Z,-1.26
2019-01-24T00:01:54.182Z,-1.3
2019-01-24T00:02:54.222Z,-1.3
2019-01-24T00:03:54.472Z,-1.29
2019-01-24T00:04:54.764Z,-1.32
2019-01-24T00:05:54.241Z,-1.32
2019-01-24T00:06:54.768Z,-1.33
2019-01-24T00:07:54.537Z,-1.29
2019-01-24T00:08:55.288Z,-1.38
2019-01-24T00:09:54.826Z,-1.33
2019-01-24T00:10:54.565Z,-1.44
2019-01-24T00:11:54.326Z,-1.26
2019-01-24T00:12:54.860Z,-1.38
2019-01-24T00:13:54.345Z,-1.33
2019-01-24T00:14:54.874Z,-1.37
2019-01-24T00:15:54.376Z,-1.38
2019-01-24T00:16:54.640Z,-1.37
2019-01-24T00:17:54.670Z,-1.33
2019-01-24T00:18:54.408Z,-1.33
2019-01-24T00:19:54.940Z,-1.37
2019-01-24T00:20:54.962Z,-1.41
2019-01-24T00:21:54.451Z,-1.33
2019-01-24T00:22:54.728Z,-1.37
2019-01-24T00:23:54.730Z,-1.4
2019-01-24T00:24:54.493Z,-1.38
2019-01-24T00:25:54.521Z,-1.4
2019-01-24T00:26:54.522Z,-1.32
2019-01-24T00:27:54.785Z,-1.38
2019-01-24T00:28:54.536Z,-1.38
2019-01-24T00:29:54.562Z,-1.32
2019-01-24T00:30:55.098Z,-1.4
2019-01-24T00:31:54.835Z,-1.38
2019-01-24T00:32:54.846Z,-1.37
2019-01-24T00:33:54.860Z,-1.38
2019-01-24T00:34:54.620Z,-1.33
2019-01-24T00:35:54.885Z,-1.33
2019-01-24T00:36:54.643Z,-1.38
2019-01-24T00:37:54.911Z,-1.4
2019-01-24T00:38:54.677Z,-1.37
2019-01-24T00:39:55.210Z,-1.37
2019-01-24T00:40:54.967Z,-1.38
2019-01-24T00:41:54.708Z,-1.38
2019-01-24T00:42:54.994Z,-1.4
2019-01-24T00:43:55.004Z,-1.41
2019-01-24T00:44:54.748Z,-1.37
2019-01-24T00:45:55.017Z,-1.38
2019-01-24T00:46:54.773Z,-1.4
2019-01-24T00:47:55.050Z,-1.35
2019-01-24T00:48:55.056Z,-1.41
2019-01-24T00:49:55.094Z,-1.4
2019-01-24T00:50:55.083Z,-1.4
2019-01-24T00:51:55.111Z,-1.4
2019-01-24T00:52:54.849Z,-1.37
2019-01-24T00:53:54.874Z,-1.37
2019-01-24T00:54:54.888Z,-1.43
2019-01-24T00:55:55.159Z,-1.3
2019-01-24T00:56:54.916Z,-1.3
2019-01-24T00:57:55.178Z,-1.26
2019-01-24T00:58:55.195Z,-1.26
2019-01-24T00:59:54.951Z,-1.26
2019-01-24T01:00:55.482Z,-1.37
2019-01-24T01:01:54.968Z,-1.29
2019-01-24T01:02:54.996Z,-1.29
2019-01-24T01:03:55.513Z,-1.29
2019-01-24T01:04:55.006Z,-1.37
2019-01-24T01:05:55.280Z,-1.41
2019-01-24T01:06:55.301Z,-1.37
2019-01-24T01:07:55.320Z,-1.38
2019-01-24T01:08:55.322Z,-1.33
2019-01-24T01:09:55.353Z,-1.32
2019-01-24T01:10:55.344Z,-1.3
2019-01-24T01:11:55.105Z,-1.29
2019-01-24T01:12:55.122Z,-1.43
2019-01-24T01:13:55.134Z,-1.37
2019-01-24T01:14:55.408Z,-1.41
2019-01-24T01:15:55.163Z,-1.32
2019-01-24T01:16:55.164Z,-1.26
2019-01-24T01:17:55.192Z,-1.37
2019-01-24T01:18:55.464Z,-1.29
2019-01-24T01:19:55.480Z,-1.32
2019-01-24T01:20:55.480Z,-1.3
2019-01-24T01:21:55.500Z,-1.3
2019-01-24T01:22:55.766Z,-1.4
2019-01-24T01:23:55.519Z,-1.26
2019-01-24T01:24:55.267Z,-1.3
2019-01-24T01:25:55.548Z,-1.3
2019-01-24T01:26:55.293Z,-1.25
2019-01-24T01:27:55.822Z,-1.27
2019-01-24T01:28:55.838Z,-1.29
2019-01-24T01:29:55.338Z,-1.27
2019-01-24T01:30:55.617Z,-1.35
2019-01-24T01:31:55.898Z,-1.27
2019-01-24T01:32:55.904Z,-1.29
2019-01-24T01:33:55.901Z,-1.35
2019-01-24T01:34:55.662Z,-1.26
2019-01-24T01:35:55.679Z,-1.33
2019-01-24T01:36:55.428Z,-1.27
2019-01-24T01:37:55.444Z,-1.25
2019-01-24T01:38:55.513Z,-1.26
2019-01-24T01:39:55.728Z,-1.25
2019-01-24T01:40:55.487Z,-1.35
2019-01-24T01:41:56.019Z,-1.23
2019-01-24T01:42:55.778Z,-1.25
2019-01-24T01:43:55.783Z,-1.23
2019-01-24T01:44:55.810Z,-1.26
2019-01-24T01:45:55.806Z,-1.29
2019-01-24T01:46:56.085Z,-1.26
2019-01-24T01:47:55.584Z,-1.25
2019-01-24T01:48:55.836Z,-1.19
2019-01-24T01:49:55.600Z,-1.2
2019-01-24T01:50:56.130Z,-1.22
2019-01-24T01:51:55.895Z,-1.25
2019-01-24T01:52:55.889Z,-1.15
2019-01-24T01:53:55.799Z,-1.15
2019-01-24T01:54:55.667Z,-1.17
2019-01-24T01:55:55.930Z,-1.11
2019-01-24T01:56:55.962Z,-1.17
2019-01-24T01:57:56.228Z,-1.22
2019-01-24T01:58:55.993Z,-1.09
2019-01-24T01:59:56.255Z,-1.09
2019-01-24T02:00:55.745Z,-1.09
2019-01-24T02:01:55.750Z,-1.11
2019-01-24T02:02:55.864Z,-1.09
2019-01-24T02:03:56.038Z,-1.11
2019-01-24T02:04:55.788Z,-1.11
2019-01-24T02:05:56.329Z,-1.04
2019-01-24T02:06:56.365Z,-1.05
2019-01-24T02:07:56.089Z,-1.09
2019-01-24T02:08:55.848Z,-1.07
2019-01-24T02:09:55.863Z,-1.07
2019-01-24T02:10:56.127Z,-1.04
2019-01-24T02:11:56.186Z,-1.05
2019-01-24T02:12:55.902Z,-1.08
2019-01-24T02:13:56.162Z,-1.04
2019-01-24T02:14:55.921Z,-0.99
2019-01-24T02:15:56.204Z,-1.04
2019-01-24T02:16:56.219Z,-1.04
2019-01-24T02:17:56.221Z,-1.05
2019-01-24T02:18:56.232Z,-0.93
2019-01-24T02:19:56.540Z,-1.02
2019-01-24T02:20:56.008Z,-1.05
2019-01-24T02:21:56.282Z,-0.94
2019-01-24T02:22:56.029Z,-1.05
2019-01-24T02:23:56.047Z,-0.99
2019-01-24T02:24:56.315Z,-1.02
2019-01-24T02:25:56.329Z,-1.01
2019-01-24T02:26:56.351Z,-0.97
2019-01-24T02:27:56.347Z,-0.97
2019-01-24T02:28:56.367Z,-0.97
2019-01-24T02:29:56.633Z,-1.01
2019-01-24T02:30:56.392Z,-0.93
2019-01-24T02:31:56.413Z,-0.99
2019-01-24T02:32:56.673Z,-0.99
2019-01-24T02:33:56.718Z,-0.91
2019-01-24T02:34:56.181Z,-0.9
2019-01-24T02:35:56.454Z,-0.94
2019-01-24T02:36:56.490Z,-0.91
2019-01-24T02:37:56.490Z,-0.86
2019-01-24T02:38:56.757Z,-0.85
2019-01-24T02:39:56.516Z,-0.9
2019-01-24T02:40:56.268Z,-0.96
2019-01-24T02:41:56.803Z,-0.85
2019-01-24T02:42:56.294Z,-0.85
2019-01-24T02:43:56.565Z,-0.83
2019-01-24T02:44:56.584Z,-0.85
2019-01-24T02:45:56.593Z,-0.91
2019-01-24T02:46:56.622Z,-0.8
2019-01-24T02:47:56.873Z,-0.82
2019-01-24T02:48:56.379Z,-0.86
2019-01-24T02:49:56.380Z,-0.86
2019-01-24T02:50:56.931Z,-0.82
2019-01-24T02:51:56.660Z,-0.83
2019-01-24T02:52:56.431Z,-0.86
2019-01-24T02:53:56.447Z,-0.82
2019-01-24T02:54:56.444Z,-0.86
2019-01-24T02:55:56.720Z,-0.85
2019-01-24T02:56:57.001Z,-0.83
2019-01-24T02:57:56.501Z,-0.82
2019-01-24T02:58:56.756Z,-0.82
2019-01-24T02:59:57.029Z,-0.78
2019-01-24T03:00:56.529Z,-0.8
2019-01-24T03:01:56.796Z,-0.82
2019-01-24T03:02:56.809Z,-0.8
2019-01-24T03:03:56.831Z,-0.83
2019-01-24T03:05:01.600Z,-0.85
2019-01-24T03:05:56.607Z,-0.8
2019-01-24T03:06:56.874Z,-0.83
2019-01-24T03:07:56.881Z,-0.83
2019-01-24T03:08:56.641Z,-0.77
2019-01-24T03:09:57.156Z,-0.77
2019-01-24T03:10:56.927Z,-0.77
2019-01-24T03:11:56.947Z,-0.75
2019-01-24T03:12:56.949Z,-0.77
2019-01-24T03:13:57.236Z,-0.82
2019-01-24T03:14:56.994Z,-0.82
2019-01-24T03:15:57.260Z,-0.85
2019-01-24T03:16:56.987Z,-0.75
2019-01-24T03:17:56.760Z,-0.77
2019-01-24T03:18:56.770Z,-0.74
2019-01-24T03:19:57.029Z,-0.74
2019-01-24T03:20:57.046Z,-0.72
2019-01-24T03:21:56.813Z,-0.77
2019-01-24T03:22:57.345Z,-0.74
2019-01-24T03:23:56.828Z,-0.68
2019-01-24T03:24:57.118Z,-0.8
2019-01-24T03:25:57.366Z,-0.72
2019-01-24T03:26:57.388Z,-0.77
2019-01-24T03:27:56.918Z,-0.77
2019-01-24T03:28:57.160Z,-0.67
2019-01-24T03:29:57.163Z,-0.78
2019-01-24T03:30:57.178Z,-0.71
2019-01-24T03:31:57.493Z,-0.64
2019-01-24T03:32:57.217Z,-0.65
2019-01-24T03:33:57.215Z,-0.68
2019-01-24T03:35:03.896Z,-0.7
2019-01-24T03:35:56.990Z,-0.67
2019-01-24T03:36:57.263Z,-0.67
2019-01-24T03:37:57.018Z,-0.65
2019-01-24T03:38:57.027Z,-0.68
2019-01-24T03:39:57.307Z,-0.71
2019-01-24T03:40:57.311Z,-0.65
2019-01-24T03:41:57.325Z,-0.64
2019-01-24T03:42:57.621Z,-0.67
2019-01-24T03:43:57.093Z,-0.65
2019-01-24T03:44:57.369Z,-0.64
2019-01-24T03:45:57.380Z,-0.7
2019-01-24T03:46:57.384Z,-0.71
2019-01-24T03:47:57.415Z,-0.74
2019-01-24T03:48:57.412Z,-0.65
2019-01-24T03:49:57.438Z,-0.65
2019-01-24T03:50:57.453Z,-0.7
2019-01-24T03:51:57.194Z,-0.72
2019-01-24T03:52:57.471Z,-0.64
2019-01-24T03:53:57.489Z,-0.7
2019-01-24T03:54:57.770Z,-0.67
2019-01-24T03:55:57.503Z,-0.67
2019-01-24T03:56:57.515Z,-0.72
2019-01-24T03:57:57.547Z,-0.65
2019-01-24T03:58:57.555Z,-0.7
2019-01-24T03:59:57.559Z,-0.67
2019-01-24T04:00:57.575Z,-0.67
2019-01-24T04:01:57.331Z,-0.74
2019-01-24T04:02:57.347Z,-0.64
2019-01-24T04:03:57.608Z,-0.65
2019-01-24T04:04:57.937Z,-0.65
2019-01-24T04:05:57.647Z,-0.72
2019-01-24T04:06:57.659Z,-0.71
2019-01-24T04:07:57.666Z,-0.67
2019-01-24T04:08:57.691Z,-0.67
2019-01-24T04:09:57.458Z,-0.68
2019-01-24T04:10:57.444Z,-0.7
2019-01-24T04:11:57.725Z,-0.68
2019-01-24T04:12:57.478Z,-0.65
2019-01-24T04:13:57.758Z,-0.67
2019-01-24T04:14:57.514Z,-0.62
2019-01-24T04:15:58.042Z,-0.65
2019-01-24T04:16:58.062Z,-0.64
2019-01-24T04:17:57.600Z,-0.65
2019-01-24T04:18:57.808Z,-0.68
2019-01-24T04:19:57.824Z,-0.67
2019-01-24T04:20:57.585Z,-0.68
2019-01-24T04:21:57.600Z,-0.71
2019-01-24T04:22:57.622Z,-0.64
2019-01-24T04:23:57.629Z,-0.67
2019-01-24T04:24:58.136Z,-0.7
2019-01-24T04:25:57.901Z,-0.67
2019-01-24T04:26:57.924Z,-0.68
2019-01-24T04:27:57.687Z,-0.67
2019-01-24T04:28:58.203Z,-0.67
2019-01-24T04:29:57.753Z,-0.62
2019-01-24T04:30:57.973Z,-0.72
2019-01-24T04:31:57.725Z,-0.74
2019-01-24T04:32:58.020Z,-0.65
2019-01-24T04:33:57.751Z,-0.68
2019-01-24T04:34:57.778Z,-0.65
2019-01-24T04:35:58.288Z,-0.72
2019-01-24T04:36:58.065Z,-0.75
2019-01-24T04:37:58.098Z,-0.65
2019-01-24T04:38:58.366Z,-0.7
2019-01-24T04:39:58.371Z,-0.65
2019-01-24T04:40:57.844Z,-0.61
2019-01-24T04:41:58.109Z,-0.67
2019-01-24T04:42:58.120Z,-0.74
2019-01-24T04:43:57.882Z,-0.68
2019-01-24T04:44:58.319Z,-0.7
2019-01-24T04:45:58.174Z,-0.72
2019-01-24T04:46:58.185Z,-0.64
2019-01-24T04:47:58.194Z,-0.71
2019-01-24T04:48:58.219Z,-0.64
2019-01-24T04:49:58.419Z,-0.61
2019-01-24T04:50:57.987Z,-0.67
2019-01-24T04:51:58.243Z,-0.71
2019-01-24T04:52:58.009Z,-0.65
2019-01-24T04:53:58.276Z,-0.65
2019-01-24T04:54:58.032Z,-0.67
2019-01-24T04:55:58.313Z,-0.77
2019-01-24T04:56:58.314Z,-0.67
2019-01-24T04:57:59.603Z,-0.71
2019-01-24T04:58:58.084Z,-0.71
2019-01-24T04:59:58.090Z,-0.71
2019-01-24T05:00:58.633Z,-0.68
2019-01-24T05:01:58.117Z,-0.71
2019-01-24T05:02:58.407Z,-0.74
2019-01-24T05:03:58.403Z,-0.72
2019-01-24T05:04:58.710Z,-0.68
2019-01-24T05:05:58.422Z,-0.75
2019-01-24T05:06:58.182Z,-0.8
2019-01-24T05:07:58.193Z,-0.68
2019-01-24T05:08:58.209Z,-0.72
2019-01-24T05:09:58.488Z,-0.68
2019-01-24T05:10:58.512Z,-0.72
2019-01-24T05:11:58.244Z,-0.77
2019-01-24T05:12:58.265Z,-0.77
2019-01-24T05:13:58.543Z,-0.72
2019-01-24T05:14:58.550Z,-0.78
2019-01-24T05:15:58.570Z,-0.74
2019-01-24T05:16:58.573Z,-0.82
2019-01-24T05:17:58.598Z,-0.78
2019-01-24T05:18:58.345Z,-0.74
2019-01-24T05:19:58.865Z,-0.74
2019-01-24T05:20:58.630Z,-0.8
2019-01-24T05:21:58.392Z,-0.8
2019-01-24T05:22:58.916Z,-0.71
2019-01-24T05:23:58.933Z,-0.75
2019-01-24T05:24:58.700Z,-0.71
2019-01-24T05:25:58.691Z,-0.8
2019-01-24T05:26:58.966Z,-0.8
2019-01-24T05:27:58.459Z,-0.8
2019-01-24T05:28:58.733Z,-0.77
2019-01-24T05:29:58.743Z,-0.78
2019-01-24T05:30:58.753Z,-0.83
2019-01-24T05:31:58.771Z,-0.85
2019-01-24T05:32:59.992Z,-0.8
2019-01-24T05:33:58.539Z,-0.71
2019-01-24T05:34:58.802Z,-0.85
2019-01-24T05:35:58.824Z,-0.75
2019-01-24T05:36:58.581Z,-0.85
2019-01-24T05:37:59.103Z,-0.75
2019-01-24T05:38:58.868Z,-0.77
2019-01-24T05:39:58.879Z,-0.82
2019-01-24T05:40:58.896Z,-0.75
2019-01-24T05:41:59.156Z,-0.8
2019-01-24T05:42:58.922Z,-0.74
2019-01-24T05:43:58.932Z,-0.77
2019-01-24T05:44:59.207Z,-0.82
2019-01-24T05:45:58.960Z,-0.75
2019-01-24T05:46:58.981Z,-0.75
2019-01-24T05:47:58.977Z,-0.74
2019-01-24T05:48:59.013Z,-0.78
2019-01-24T05:49:59.003Z,-0.75
2019-01-24T05:50:58.763Z,-0.7
2019-01-24T05:51:59.028Z,-0.7
2019-01-24T05:52:59.040Z,-0.7
2019-01-24T05:53:59.054Z,-0.67
2019-01-24T05:54:59.336Z,-0.72
2019-01-24T05:55:59.087Z,-0.7
2019-01-24T05:56:58.847Z,-0.78
2019-01-24T05:57:59.113Z,-0.72
2019-01-24T05:58:59.133Z,-0.71
2019-01-24T05:59:58.877Z,-0.72
2019-01-24T06:00:59.599Z,-0.75
2019-01-24T06:01:59.160Z,-0.68
2019-01-24T06:02:59.175Z,-0.7
2019-01-24T06:03:58.930Z,-0.67
2019-01-24T06:04:59.196Z,-0.67
2019-01-24T06:05:59.479Z,-0.7
2019-01-24T06:06:59.225Z,-0.72
2019-01-24T06:07:58.987Z,-0.72
2019-01-24T06:08:59.520Z,-0.67
2019-01-24T06:09:59.004Z,-0.65
2019-01-24T06:10:59.278Z,-0.68
2019-01-24T06:11:59.558Z,-0.65
2019-01-24T06:12:59.565Z,-0.64
2019-01-24T06:13:59.315Z,-0.68
2019-01-24T06:14:59.080Z,-0.7
2019-01-24T06:15:59.094Z,-0.65
2019-01-24T06:16:59.110Z,-0.65
2019-01-24T06:17:59.116Z,-0.67
2019-01-24T06:18:59.136Z,-0.64
2019-01-24T06:19:59.150Z,-0.68
2019-01-24T06:20:59.678Z,-0.67
2019-01-24T06:21:59.704Z,-0.71
2019-01-24T06:22:59.455Z,-0.68
2019-01-24T06:23:59.455Z,-0.68
2019-01-24T06:24:59.467Z,-0.65
2019-01-24T06:25:59.223Z,-0.7
2019-01-24T06:26:59.496Z,-0.7
2019-01-24T06:27:59.503Z,-0.62
2019-01-24T06:28:59.259Z,-0.71
2019-01-24T06:29:59.276Z,-0.7
2019-01-24T06:30:59.799Z,-0.65
2019-01-24T06:31:59.555Z,-0.67
2019-01-24T06:32:59.578Z,-0.65
2019-01-24T06:33:59.339Z,-0.67
2019-01-24T06:34:59.344Z,-0.67
2019-01-24T06:35:59.610Z,-0.67
2019-01-24T06:36:59.620Z,-0.64
2019-01-24T06:37:59.902Z,-0.62
2019-01-24T06:38:59.643Z,-0.71
2019-01-24T06:39:59.667Z,-0.68
2019-01-24T06:40:59.944Z,-0.65
2019-01-24T06:41:59.942Z,-0.7
2019-01-24T06:42:59.704Z,-0.7
2019-01-24T06:44:00.296Z,-0.74
2019-01-24T06:44:59.741Z,-0.64
2019-01-24T06:45:59.751Z,-0.64
2019-01-24T06:46:59.767Z,-0.68
2019-01-24T06:48:00.062Z,-0.67
2019-01-24T06:48:59.536Z,-0.71
2019-01-24T06:49:59.792Z,-0.62
2019-01-24T06:50:59.595Z,-0.65
2019-01-24T06:51:59.829Z,-0.62
2019-01-24T06:52:59.830Z,-0.71
2019-01-24T06:53:59.594Z,-0.71
2019-01-24T06:54:59.855Z,-0.68
2019-01-24T06:55:59.872Z,-0.71
2019-01-24T06:56:59.885Z,-0.71
2019-01-24T06:57:59.641Z,-0.7
2019-01-24T06:58:59.919Z,-0.64
2019-01-24T06:59:59.666Z,-0.72
2019-01-24T07:00:59.944Z,-0.64
2019-01-24T07:01:59.700Z,-0.64
2019-01-24T07:02:59.992Z,-0.71
2019-01-24T07:03:59.723Z,-0.72
2019-01-24T07:04:59.732Z,-0.65
2019-01-24T07:06:00.203Z,-0.65
2019-01-24T07:06:59.757Z,-0.65
2019-01-24T07:08:00.031Z,-0.71
2019-01-24T07:09:00.055Z,-0.7
2019-01-24T07:10:00.072Z,-0.68
2019-01-24T07:11:00.371Z,-0.68
2019-01-24T07:12:00.079Z,-0.7
2019-01-24T07:13:00.114Z,-0.68
2019-01-24T07:14:00.111Z,-0.68
2019-01-24T07:14:59.889Z,-0.7
2019-01-24T07:15:59.880Z,-0.7
2019-01-24T07:17:00.400Z,-0.62
2019-01-24T07:18:00.164Z,-0.65
2019-01-24T07:19:00.168Z,-0.71
2019-01-24T07:20:00.184Z,-0.71
2019-01-24T07:21:00.202Z,-0.67
2019-01-24T07:22:00.486Z,-0.72
2019-01-24T07:23:00.222Z,-0.64
2019-01-24T07:23:59.989Z,-0.68
2019-01-24T07:25:00.002Z,-0.71
2019-01-24T07:26:00.323Z,-0.74
2019-01-24T07:27:00.276Z,-0.71
2019-01-24T07:28:00.307Z,-0.71
2019-01-24T07:29:00.052Z,-0.77
2019-01-24T07:30:00.321Z,-0.72
2019-01-24T07:31:00.592Z,-0.7
2019-01-24T07:32:00.091Z,-0.64
2019-01-24T07:33:01.299Z,-0.65
2019-01-24T07:34:00.377Z,-0.65
2019-01-24T07:35:00.383Z,-0.65
2019-01-24T07:36:06.662Z,-0.67
2019-01-24T07:37:00.673Z,-0.62
2019-01-24T07:38:00.160Z,-0.65
2019-01-24T07:39:00.707Z,-0.64
2019-01-24T07:40:00.716Z,-0.65
2019-01-24T07:41:00.460Z,-0.72
2019-01-24T07:42:00.479Z,-0.67
2019-01-24T07:43:00.231Z,-0.67
2019-01-24T07:44:00.238Z,-0.68
2019-01-24T07:45:00.263Z,-0.68
2019-01-24T07:46:00.265Z,-0.68
2019-01-24T07:47:00.279Z,-0.71
2019-01-24T07:48:00.306Z,-0.67
2019-01-24T07:49:00.562Z,-0.64
2019-01-24T07:50:00.851Z,-0.62
2019-01-24T07:51:00.644Z,-0.61
2019-01-24T07:52:00.600Z,-0.65
2019-01-24T07:53:00.358Z,-0.65
2019-01-24T07:54:00.404Z,-0.67
2019-01-24T07:55:00.666Z,-0.62
2019-01-24T07:56:00.403Z,-0.67
2019-01-24T07:57:00.419Z,-0.59
2019-01-24T07:58:00.967Z,-0.67
2019-01-24T07:59:00.714Z,-0.7
2019-01-24T08:00:00.460Z,-0.64
2019-01-24T08:01:00.995Z,-0.68
2019-01-24T08:02:00.757Z,-0.64
2019-01-24T08:03:00.504Z,-0.65
2019-01-24T08:04:01.033Z,-0.64
2019-01-24T08:05:00.517Z,-0.52
2019-01-24T08:06:00.847Z,-0.65
2019-01-24T08:07:00.801Z,-0.65
2019-01-24T08:08:00.833Z,-0.64
2019-01-24T08:09:00.839Z,-0.64
2019-01-24T08:10:01.517Z,-0.61
2019-01-24T08:11:00.864Z,-0.54
2019-01-24T08:12:00.608Z,-0.61
2019-01-24T08:13:01.144Z,-0.54
2019-01-24T08:14:00.906Z,-0.57
2019-01-24T08:15:00.645Z,-0.57
2019-01-24T08:16:00.660Z,-0.57
2019-01-24T08:17:01.201Z,-0.5
2019-01-24T08:18:00.947Z,-0.57
2019-01-24T08:19:00.703Z,-0.59
2019-01-24T08:20:00.738Z,-0.62
2019-01-24T08:21:00.987Z,-0.54
2019-01-24T08:22:02.156Z,-0.59
2019-01-24T08:23:01.280Z,-0.57
2019-01-24T08:24:01.030Z,-0.65
2019-01-24T08:25:01.062Z,-0.54
2019-01-24T08:26:01.310Z,-0.56
2019-01-24T08:27:01.340Z,-0.54
2019-01-24T08:28:00.816Z,-0.54
2019-01-24T08:29:01.092Z,-0.56
2019-01-24T08:30:01.125Z,-0.57
2019-01-24T08:31:01.385Z,-0.52
2019-01-24T08:32:01.400Z,-0.57
2019-01-24T08:33:00.906Z,-0.5
2019-01-24T08:34:00.894Z,-0.62
2019-01-24T08:35:01.186Z,-0.54
2019-01-24T08:36:01.438Z,-0.56
2019-01-24T08:37:01.191Z,-0.46
2019-01-24T08:38:01.206Z,-0.46
2019-01-24T08:39:01.232Z,-0.44
2019-01-24T08:40:01.290Z,-0.46
2019-01-24T08:41:01.521Z,-0.43
2019-01-24T08:42:01.274Z,-0.5
2019-01-24T08:43:01.291Z,-0.43
2019-01-24T08:44:01.036Z,-0.43
2019-01-24T08:45:01.577Z,-0.46
2019-01-24T08:46:01.315Z,-0.5
2019-01-24T08:47:01.084Z,-0.52
2019-01-24T08:48:01.346Z,-0.52
2019-01-24T08:49:01.354Z,-0.49
2019-01-24T08:50:01.367Z,-0.53
2019-01-24T08:51:01.171Z,-0.39
2019-01-24T08:52:01.134Z,-0.47
2019-01-24T08:53:01.155Z,-0.47
2019-01-24T08:54:01.418Z,-0.46
2019-01-24T08:55:01.210Z,-0.53
2019-01-24T08:56:01.705Z,-0.5
2019-01-24T08:57:01.200Z,-0.44
2019-01-24T08:58:01.225Z,-0.46
2019-01-24T08:59:01.492Z,-0.36
2019-01-24T09:00:01.496Z,-0.43
2019-01-24T09:01:01.512Z,-0.34
2019-01-24T09:02:01.271Z,-0.43
2019-01-24T09:03:01.541Z,-0.43
2019-01-24T09:04:01.302Z,-0.43
2019-01-24T09:05:01.595Z,-0.38
2019-01-24T09:06:01.625Z,-0.43
2019-01-24T09:07:01.867Z,-0.35
2019-01-24T09:08:01.364Z,-0.35
2019-01-24T09:09:01.361Z,-0.41
2019-01-24T09:10:01.638Z,-0.36
2019-01-24T09:11:01.935Z,-0.26
2019-01-24T09:12:01.402Z,-0.31
2019-01-24T09:13:01.948Z,-0.32
2019-01-24T09:14:01.942Z,-0.26
2019-01-24T09:15:01.975Z,-0.29
2019-01-24T09:16:02.047Z,-0.26
2019-01-24T09:17:01.483Z,-0.28
2019-01-24T09:18:01.762Z,-0.25
2019-01-24T09:19:02.009Z,-0.21
2019-01-24T09:20:01.507Z,-0.25
2019-01-24T09:21:01.794Z,-0.2
2019-01-24T09:22:01.788Z,-0.17
2019-01-24T09:23:02.064Z,-0.13
2019-01-24T09:24:01.824Z,-0.23
2019-01-24T09:25:01.886Z,-0.14
2019-01-24T09:26:01.586Z,-0.14
2019-01-24T09:27:02.119Z,-0.17
2019-01-24T09:28:01.608Z,-0.17
2019-01-24T09:29:02.160Z,-0.14
2019-01-24T09:30:01.899Z,-0.18
2019-01-24T09:31:01.907Z,-0.17
2019-01-24T09:32:01.669Z,-0.08
2019-01-24T09:33:01.688Z,-0.11
2019-01-24T09:34:01.697Z,-0.07
2019-01-24T09:35:01.968Z,-0.1
2019-01-24T09:36:02.249Z,-0.06
2019-01-24T09:37:02.257Z,-0.06
2019-01-24T09:38:01.998Z,-0.06
2019-01-24T09:39:02.286Z,0.01
2019-01-24T09:40:01.783Z,-0.02
2019-01-24T09:41:01.800Z,-0.03
2019-01-24T09:42:02.056Z,0.03
2019-01-24T09:43:02.079Z,0.08
2019-01-24T09:44:02.091Z,0.12
2019-01-24T09:45:01.857Z,0.04
2019-01-24T09:46:02.115Z,0.07
2019-01-24T09:47:02.379Z,0.12
2019-01-24T09:48:02.135Z,0.15
2019-01-24T09:49:02.153Z,0.21
2019-01-24T09:50:02.598Z,0.25
2019-01-24T09:51:02.176Z,0.21
2019-01-24T09:52:02.202Z,0.25
2019-01-24T09:53:02.200Z,0.28
2019-01-24T09:54:02.213Z,0.29
2019-01-24T09:55:03.384Z,0.26
2019-01-24T09:56:02.505Z,0.23
2019-01-24T09:57:02.511Z,0.31
2019-01-24T09:58:02.279Z,0.31
2019-01-24T09:59:02.283Z,0.25
2019-01-24T10:00:02.295Z,0.23
2019-01-24T10:01:02.326Z,0.36
2019-01-24T10:02:02.321Z,0.34
2019-01-24T10:03:02.093Z,0.34
2019-01-24T10:04:02.101Z,0.34
2019-01-24T10:05:02.376Z,0.39
2019-01-24T10:06:02.122Z,0.29
2019-01-24T10:07:02.136Z,0.25
2019-01-24T10:08:02.149Z,0.28
2019-01-24T10:09:02.419Z,0.28
2019-01-24T10:10:02.458Z,0.22
2019-01-24T10:11:02.192Z,0.26
2019-01-24T10:12:02.458Z,0.29
2019-01-24T10:13:02.215Z,0.25
2019-01-24T10:14:02.227Z,0.28
2019-01-24T10:15:02.501Z,0.29
2019-01-24T10:16:02.770Z,0.25
2019-01-24T10:17:02.540Z,0.26
2019-01-24T10:18:02.810Z,0.25
2019-01-24T10:19:02.574Z,0.32
2019-01-24T10:20:02.591Z,0.25
2019-01-24T10:21:02.322Z,0.36
2019-01-24T10:22:02.596Z,0.4
2019-01-24T10:23:02.621Z,0.41
2019-01-24T10:24:02.885Z,0.4
2019-01-24T10:25:02.649Z,0.37
2019-01-24T10:26:02.668Z,0.46
2019-01-24T10:27:02.928Z,0.41
2019-01-24T10:28:02.683Z,0.49
2019-01-24T10:29:02.963Z,0.52
2019-01-24T10:30:02.509Z,0.62
2019-01-24T10:31:02.465Z,0.59
2019-01-24T10:32:02.761Z,0.59
2019-01-24T10:33:02.742Z,0.62
2019-01-24T10:34:02.497Z,0.68
2019-01-24T10:35:03.042Z,0.74
2019-01-24T10:36:02.805Z,0.74
2019-01-24T10:37:02.810Z,0.74
2019-01-24T10:38:03.091Z,0.78
2019-01-24T10:39:02.834Z,0.77
2019-01-24T10:40:02.605Z,0.81
2019-01-24T10:41:02.850Z,0.83
2019-01-24T10:42:02.873Z,0.83
2019-01-24T10:43:02.887Z,0.8
2019-01-24T10:44:02.889Z,0.87
2019-01-24T10:45:02.646Z,0.88
2019-01-24T10:46:02.924Z,0.84
2019-01-24T10:47:03.246Z,0.88
2019-01-24T10:48:02.948Z,0.86
2019-01-24T10:49:02.955Z,0.86
2019-01-24T10:50:02.978Z,0.86
2019-01-24T10:51:02.727Z,0.86
2019-01-24T10:52:02.750Z,0.91
2019-01-24T10:53:03.290Z,0.87
2019-01-24T10:54:03.282Z,0.8
2019-01-24T10:55:02.783Z,0.81
2019-01-24T10:56:03.063Z,0.81
2019-01-24T10:57:03.234Z,0.78
2019-01-24T10:58:03.164Z,0.77
2019-01-24T10:59:03.100Z,0.77
2019-01-24T11:00:03.106Z,0.74
2019-01-24T11:01:03.129Z,0.7
2019-01-24T11:02:03.134Z,0.68
2019-01-24T11:03:02.891Z,0.73
2019-01-24T11:04:02.909Z,0.7
2019-01-24T11:05:03.188Z,0.77
2019-01-24T11:06:03.464Z,0.74
2019-01-24T11:07:03.206Z,0.76
2019-01-24T11:08:03.477Z,0.68
2019-01-24T11:09:02.973Z,0.66
2019-01-24T11:10:03.276Z,0.68
2019-01-24T11:11:03.259Z,0.65
2019-01-24T11:12:03.286Z,0.62
2019-01-24T11:13:03.026Z,0.62
2019-01-24T11:14:03.309Z,0.73
2019-01-24T11:15:03.058Z,0.62
2019-01-24T11:16:03.586Z,0.7
2019-01-24T11:17:03.376Z,0.68
2019-01-24T11:18:03.354Z,0.65
2019-01-24T11:19:03.369Z,0.65
2019-01-24T11:20:03.388Z,0.69
2019-01-24T11:21:03.391Z,0.73
2019-01-24T11:22:03.409Z,0.76
2019-01-24T11:23:03.417Z,0.74
2019-01-24T11:24:03.177Z,0.7
2019-01-24T11:25:03.196Z,0.7
2019-01-24T11:26:03.215Z,0.73
2019-01-24T11:27:03.221Z,0.77
2019-01-24T11:28:03.484Z,0.81
2019-01-24T11:29:03.503Z,0.73
2019-01-24T11:30:03.313Z,0.74
2019-01-24T11:31:03.537Z,0.83
2019-01-24T11:32:03.547Z,0.84
2019-01-24T11:33:03.559Z,0.8
2019-01-24T11:34:03.828Z,0.8
2019-01-24T11:35:03.586Z,0.88
2019-01-24T11:36:03.614Z,0.86
2019-01-24T11:37:03.609Z,0.84
2019-01-24T11:38:03.377Z,0.87
2019-01-24T11:39:03.375Z,0.87
2019-01-24T11:40:03.655Z,0.88
2019-01-24T11:41:03.431Z,0.91
2019-01-24T11:42:03.423Z,0.91
2019-01-24T11:43:03.961Z,0.92
2019-01-24T11:44:03.446Z,0.87
2019-01-24T11:45:03.723Z,0.88
2019-01-24T11:46:03.478Z,0.94
2019-01-24T11:47:03.546Z,0.91
2019-01-24T11:48:03.759Z,0.99
2019-01-24T11:49:04.030Z,0.96
2019-01-24T11:50:03.792Z,0.94
2019-01-24T11:51:03.798Z,1.02
2019-01-24T11:52:03.902Z,1.01
2019-01-24T11:53:04.107Z,1.01
2019-01-24T11:54:03.584Z,1.05
2019-01-24T11:55:03.608Z,1.02
2019-01-24T11:56:03.612Z,1.02
2019-01-24T11:57:04.147Z,1.05
2019-01-24T11:58:03.908Z,0.98
2019-01-24T11:59:03.652Z,0.98
2019-01-24T12:00:03.675Z,1.1
2019-01-24T12:01:03.682Z,1.1
2019-01-24T12:02:04.205Z,1.14
2019-01-24T12:03:03.706Z,1.13
2019-01-24T12:04:03.723Z,1.05
2019-01-24T12:05:03.740Z,1.14
2019-01-24T12:06:03.755Z,1.12
2019-01-24T12:07:08.859Z,1.14
2019-01-24T12:08:04.040Z,1.12
2019-01-24T12:09:04.307Z,1.06
2019-01-24T12:10:04.071Z,1.1
2019-01-24T12:11:04.094Z,1.04
2019-01-24T12:12:04.085Z,1.13
2019-01-24T12:13:03.844Z,1.1
2019-01-24T12:14:04.388Z,1.14
2019-01-24T12:15:04.147Z,1.08
2019-01-24T12:16:04.139Z,1.16
2019-01-24T12:17:03.899Z,1.13
2019-01-24T12:18:04.425Z,1.14
2019-01-24T12:19:04.183Z,1.13
2019-01-24T12:20:04.203Z,1.13
2019-01-24T12:21:03.950Z,1.16
2019-01-24T12:22:03.974Z,1.17
2019-01-24T12:23:03.989Z,1.22
2019-01-24T12:24:03.991Z,1.14
2019-01-24T12:25:04.012Z,1.2
2019-01-24T12:26:04.550Z,1.22
2019-01-24T12:27:04.546Z,1.24
2019-01-24T12:28:04.050Z,1.23
2019-01-24T12:29:04.065Z,1.31
2019-01-24T12:30:04.089Z,1.28
2019-01-24T12:31:04.107Z,1.31
2019-01-24T12:32:04.371Z,1.24
2019-01-24T12:33:04.632Z,1.31
2019-01-24T12:34:04.388Z,1.24
2019-01-24T12:35:04.434Z,1.26
2019-01-24T12:36:04.684Z,1.3
2019-01-24T12:37:11.073Z,1.28
2019-01-24T12:38:04.453Z,1.28
2019-01-24T12:39:04.724Z,1.38
2019-01-24T12:40:04.477Z,1.35
2019-01-24T12:41:04.231Z,1.42
2019-01-24T12:42:04.240Z,1.31
2019-01-24T12:43:04.512Z,1.37
2019-01-24T12:44:04.794Z,1.34
2019-01-24T12:45:04.543Z,1.37
2019-01-24T12:46:04.313Z,1.3
2019-01-24T12:47:04.316Z,1.38
2019-01-24T12:48:04.589Z,1.37
2019-01-24T12:49:04.609Z,1.32
2019-01-24T12:50:04.617Z,1.38
2019-01-24T12:51:04.887Z,1.34
2019-01-24T12:52:04.379Z,1.32
2019-01-24T12:53:04.444Z,1.35
2019-01-24T12:54:05.320Z,1.38
2019-01-24T12:55:04.822Z,1.38
2019-01-24T12:56:04.437Z,1.38
2019-01-24T12:57:04.446Z,1.35
2019-01-24T12:58:04.719Z,1.38
2019-01-24T12:59:04.751Z,1.38
2019-01-24T13:00:05.434Z,1.28
2019-01-24T13:01:04.504Z,1.4
2019-01-24T13:02:04.780Z,1.37
2019-01-24T13:03:04.823Z,1.3